createdAt,value
2019-04-27T00:01:36.627Z,98204.36
2019-04-27T00:04:34.797Z,98202.91
2019-04-27T00:07:16.952Z,98206.38
2019-04-27T00:09:54.472Z,98205.96
2019-04-27T00:12:26.474Z,98196.72
2019-04-27T00:14:56.409Z,98196.72
2019-04-27T00:17:48.668Z,98198.88
2019-04-27T00:20:25.542Z,98195.63
2019-04-27T00:22:58.615Z,98194.65
2019-04-27T00:25:28.889Z,98189.72
2019-04-27T00:27:58.792Z,98185.77
2019-04-27T00:30:29.025Z,98178.27
2019-04-27T00:32:58.924Z,98176.59
2019-04-27T00:35:34.950Z,98177.32
2019-04-27T00:38:27.274Z,98173.28
2019-04-27T00:41:02.943Z,98164.52
2019-04-27T00:43:32.967Z,98167.56
2019-04-27T00:46:04.071Z,98158.03
2019-04-27T00:48:34.128Z,98161.06
2019-04-27T00:51:04.359Z,98157.17
2019-04-27T00:53:35.239Z,98157.72
2019-04-27T00:56:23.642Z,98153.72
2019-04-27T00:59:13.664Z,98147.14
2019-04-27T01:01:53.495Z,98150.39
2019-04-27T01:04:26.015Z,98140.45
2019-04-27T01:06:56.393Z,98142.02
2019-04-27T01:09:26.663Z,98137.13
2019-04-27T01:11:57.044Z,98136.39
2019-04-27T01:14:27.229Z,98137.55
2019-04-27T01:16:57.142Z,98129.09
2019-04-27T01:19:27.058Z,98133.25
2019-04-27T01:21:58.511Z,98131.26
2019-04-27T01:24:28.721Z,98130.47
2019-04-27T01:27:19.270Z,98130.80
2019-04-27T01:29:50.121Z,98136.83
2019-04-27T01:32:20.643Z,98134.16
2019-04-27T01:34:50.862Z,98129.30
2019-04-27T01:37:21.208Z,98131.69
2019-04-27T01:39:51.421Z,98131.41
2019-04-27T01:42:21.362Z,98126.61
2019-04-27T01:44:51.366Z,98123.45
2019-04-27T01:47:21.992Z,98128.02
2019-04-27T01:49:52.012Z,98131.48
2019-04-27T01:52:21.985Z,98132.56
2019-04-27T01:54:51.934Z,98129.23
2019-04-27T01:57:21.913Z,98130.97
2019-04-27T01:59:51.930Z,98128.59
2019-04-27T02:02:32.782Z,98128.59
2019-04-27T02:05:18.999Z,98130.61
2019-04-27T02:07:49.227Z,98134.95
2019-04-27T02:10:19.788Z,98135.58
2019-04-27T02:12:49.910Z,98136.23
2019-04-27T02:15:20.155Z,98129.75
2019-04-27T02:17:51.030Z,98136.73
2019-04-27T02:20:21.292Z,98134.98
2019-04-27T02:22:51.207Z,98143.52
2019-04-27T02:25:21.552Z,98140.67
2019-04-27T02:27:56.333Z,98139.27
2019-04-27T02:30:44.292Z,98140.36
2019-04-27T02:33:31.183Z,98135.30
2019-04-27T02:36:01.154Z,98135.31
2019-04-27T02:38:31.297Z,98133.72
2019-04-27T02:41:03.364Z,98136.52
2019-04-27T02:43:59.496Z,98134.95
2019-04-27T02:46:31.257Z,98139.66
2019-04-27T02:49:06.230Z,98134.23
2019-04-27T02:51:44.661Z,98139.78
2019-04-27T02:54:14.727Z,98127.63
2019-04-27T02:56:44.866Z,98131.11
2019-04-27T02:59:14.948Z,98135.59
2019-04-27T03:01:53.977Z,98129.25
2019-04-27T03:04:24.180Z,98131.50
2019-04-27T03:06:54.239Z,98125.38
2019-04-27T03:09:24.295Z,98133.34
2019-04-27T03:11:55.650Z,98128.22
2019-04-27T03:14:56.598Z,98128.65
2019-04-27T03:17:32.254Z,98125.34
2019-04-27T03:20:20.420Z,98118.33
2019-04-27T03:22:54.115Z,98117.80
2019-04-27T03:25:34.553Z,98118.30
2019-04-27T03:28:15.198Z,98114.93
2019-04-27T03:30:45.397Z,98118.95
2019-04-27T03:33:15.668Z,98110.30
2019-04-27T03:35:46.206Z,98111.08
2019-04-27T03:38:16.355Z,98106.64
2019-04-27T03:40:46.419Z,98112.00
2019-04-27T03:43:22.731Z,98110.49
2019-04-27T03:45:53.164Z,98111.02
2019-04-27T03:48:23.322Z,98107.72
2019-04-27T03:51:11.052Z,98110.64
2019-04-27T03:54:01.177Z,98107.58
2019-04-27T03:56:39.363Z,98103.05
2019-04-27T03:59:32.529Z,98110.23
2019-04-27T04:02:02.624Z,98108.30
2019-04-27T04:04:32.943Z,98110.23
2019-04-27T04:07:15.746Z,98110.25
2019-04-27T04:09:45.792Z,98116.62
2019-04-27T04:12:30.283Z,98118.45
2019-04-27T04:15:00.156Z,98115.16
2019-04-27T04:17:31.038Z,98115.36
2019-04-27T04:20:02.356Z,98112.16
2019-04-27T04:22:32.941Z,98112.40
2019-04-27T04:25:02.990Z,98115.10
2019-04-27T04:27:33.004Z,98111.53
2019-04-27T04:30:03.010Z,98117.75
2019-04-27T04:32:32.957Z,98120.32
2019-04-27T04:35:23.075Z,98122.43
2019-04-27T04:37:53.522Z,98120.74
2019-04-27T04:40:33.494Z,98124.84
2019-04-27T04:43:10.784Z,98128.70
2019-04-27T04:45:50.144Z,98124.77
2019-04-27T04:48:20.137Z,98127.78
2019-04-27T04:50:50.329Z,98121.94
2019-04-27T04:53:20.886Z,98131.02
2019-04-27T04:55:50.962Z,98123.94
2019-04-27T04:58:21.271Z,98123.70
2019-04-27T05:00:52.266Z,98123.31
2019-04-27T05:03:22.312Z,98125.09
2019-04-27T05:05:52.382Z,98127.53
2019-04-27T05:08:22.330Z,98130.84
2019-04-27T05:10:52.241Z,98124.89
2019-04-27T05:13:22.176Z,98131.67
2019-04-27T05:15:52.172Z,98132.45
2019-04-27T05:18:22.188Z,98135.13
2019-04-27T05:21:14.155Z,98132.90
2019-04-27T05:23:44.248Z,98133.93
2019-04-27T05:26:14.183Z,98129.77
2019-04-27T05:28:44.235Z,98121.48
2019-04-27T05:31:14.322Z,98117.44
2019-04-27T05:33:44.383Z,98121.95
2019-04-27T05:36:14.398Z,98123.09
2019-04-27T05:38:46.038Z,98115.98
2019-04-27T05:41:16.066Z,98117.84
2019-04-27T05:44:07.736Z,98113.62
2019-04-27T05:47:09.970Z,98121.59
2019-04-27T05:49:44.397Z,98119.51
2019-04-27T05:52:29.451Z,98121.92
2019-04-27T05:55:00.409Z,98119.30
2019-04-27T05:57:31.529Z,98116.48
2019-04-27T06:00:02.600Z,98120.99
2019-04-27T06:02:32.885Z,98117.08
2019-04-27T06:05:03.058Z,98121.45
2019-04-27T06:07:33.979Z,98112.11
2019-04-27T06:10:04.504Z,98122.34
2019-04-27T06:12:34.409Z,98120.98
2019-04-27T06:15:05.093Z,98119.78
2019-04-27T06:17:35.216Z,98112.42
2019-04-27T06:20:06.229Z,98109.54
2019-04-27T06:22:36.185Z,98105.95
2019-04-27T06:25:07.095Z,98103.55
2019-04-27T06:27:37.094Z,98104.60
2019-04-27T06:30:09.348Z,98098.80
2019-04-27T06:32:40.250Z,98095.05
2019-04-27T06:35:12.375Z,98090.94
2019-04-27T06:37:42.847Z,98097.64
2019-04-27T06:40:13.179Z,98093.59
2019-04-27T06:42:43.117Z,98096.38
2019-04-27T06:45:13.338Z,98096.59
2019-04-27T06:47:43.428Z,98089.61
2019-04-27T06:50:13.966Z,98087.44
2019-04-27T06:52:44.148Z,98088.37
2019-04-27T06:55:14.327Z,98082.94
2019-04-27T06:57:44.308Z,98084.98
2019-04-27T07:00:14.654Z,98087.20
2019-04-27T07:02:44.775Z,98084.27
2019-04-27T07:05:15.158Z,98082.09
2019-04-27T07:07:45.168Z,98081.60
2019-04-27T07:10:15.538Z,98081.00
2019-04-27T07:12:45.452Z,98078.50
2019-04-27T07:15:15.676Z,98081.87
2019-04-27T07:17:45.678Z,98081.52
2019-04-27T07:20:15.769Z,98085.45
2019-04-27T07:22:45.718Z,98085.95
2019-04-27T07:25:15.959Z,98080.92
2019-04-27T07:27:45.882Z,98074.39
2019-04-27T07:30:16.146Z,98078.70
2019-04-27T07:32:46.080Z,98082.03
2019-04-27T07:35:16.218Z,98079.82
2019-04-27T07:37:46.518Z,98076.78
2019-04-27T07:40:18.659Z,98076.22
2019-04-27T07:42:51.719Z,98074.68
2019-04-27T07:45:29.554Z,98073.52
2019-04-27T07:47:59.463Z,98080.19
2019-04-27T07:50:29.442Z,98077.84
2019-04-27T07:53:00.197Z,98057.48
2019-04-27T07:55:30.118Z,98065.66
2019-04-27T07:58:00.202Z,98063.09
2019-04-27T08:00:30.186Z,98059.80
2019-04-27T08:03:00.132Z,98061.86
2019-04-27T08:05:30.112Z,98065.17
2019-04-27T08:08:00.345Z,98067.23
2019-04-27T08:10:30.372Z,98063.30
2019-04-27T08:13:00.679Z,98060.16
2019-04-27T08:15:30.725Z,98054.72
2019-04-27T08:18:00.686Z,98061.51
2019-04-27T08:20:30.696Z,98058.14
2019-04-27T08:23:01.366Z,98048.35
2019-04-27T08:25:31.466Z,98051.30
2019-04-27T08:28:11.318Z,98046.70
2019-04-27T08:31:03.046Z,98050.55
2019-04-27T08:33:33.273Z,98044.15
2019-04-27T08:36:03.257Z,98044.94
2019-04-27T08:38:33.314Z,98032.94
2019-04-27T08:41:03.285Z,98031.66
2019-04-27T08:43:35.021Z,98027.44
2019-04-27T08:46:05.543Z,98029.95
2019-04-27T08:48:36.990Z,98029.73
2019-04-27T08:51:07.268Z,98034.07
2019-04-27T08:53:37.391Z,98044.67
2019-04-27T08:56:09.232Z,98037.44
2019-04-27T08:58:39.110Z,98033.37
2019-04-27T09:01:10.375Z,98037.40
2019-04-27T09:03:40.504Z,98035.05
2019-04-27T09:06:12.099Z,98023.52
2019-04-27T09:08:59.273Z,98026.32
2019-04-27T09:11:53.012Z,98023.81
2019-04-27T09:14:31.330Z,98023.72
2019-04-27T09:17:05.818Z,98008.05
2019-04-27T09:19:49.191Z,98019.40
2019-04-27T09:22:20.786Z,98021.38
2019-04-27T09:24:50.947Z,98011.05
2019-04-27T09:27:21.013Z,98026.84
2019-04-27T09:29:51.028Z,98014.51
2019-04-27T09:32:20.942Z,98011.18
2019-04-27T09:34:50.892Z,98010.62
2019-04-27T09:37:20.873Z,98007.00
2019-04-27T09:39:50.933Z,98015.95
2019-04-27T09:42:20.844Z,98013.02
2019-04-27T09:44:51.205Z,98016.82
2019-04-27T09:47:21.132Z,98015.38
2019-04-27T09:49:51.088Z,98015.94
2019-04-27T09:52:26.145Z,98014.88
2019-04-27T09:54:52.689Z,98006.22
2019-04-27T09:57:22.679Z,97998.98
2019-04-27T09:59:52.643Z,98010.39
2019-04-27T10:02:22.691Z,98008.79
2019-04-27T10:04:53.048Z,98010.39
2019-04-27T10:07:23.082Z,98009.13
2019-04-27T10:09:53.103Z,98002.73
2019-04-27T10:12:23.161Z,98001.70
2019-04-27T10:14:53.111Z,98006.75
2019-04-27T10:17:23.126Z,97997.85
2019-04-27T10:19:53.150Z,98000.72
2019-04-27T10:22:23.430Z,97997.00
2019-04-27T10:24:53.510Z,97993.12
2019-04-27T10:27:23.489Z,97987.48
2019-04-27T10:29:53.422Z,97989.53
2019-04-27T10:32:23.759Z,97986.17
2019-04-27T10:34:53.697Z,97990.62
2019-04-27T10:37:23.601Z,97996.90
2019-04-27T10:39:53.564Z,97985.19
2019-04-27T10:42:23.491Z,97986.84
2019-04-27T10:44:53.435Z,97982.55
2019-04-27T10:47:23.362Z,97984.38
2019-04-27T10:49:53.374Z,97974.64
2019-04-27T10:52:23.984Z,97976.28
2019-04-27T10:54:55.633Z,97975.67
2019-04-27T10:57:25.840Z,97984.50
2019-04-27T10:59:56.310Z,97972.43
2019-04-27T11:02:26.392Z,97981.31
2019-04-27T11:05:06.826Z,97974.61
2019-04-27T11:07:38.623Z,97970.61
2019-04-27T11:10:09.489Z,97970.86
2019-04-27T11:12:39.398Z,97967.89
2019-04-27T11:15:10.389Z,97973.23
2019-04-27T11:17:40.476Z,97973.44
2019-04-27T11:20:11.446Z,97971.65
2019-04-27T11:22:41.518Z,97972.55
2019-04-27T11:25:12.471Z,97978.69
2019-04-27T11:27:42.553Z,97974.63
2019-04-27T11:30:13.332Z,97970.73
2019-04-27T11:32:43.542Z,97973.58
2019-04-27T11:35:32.057Z,97974.06
2019-04-27T11:38:02.083Z,97972.50
2019-04-27T11:40:32.962Z,97972.97
2019-04-27T11:43:02.938Z,97968.27
2019-04-27T11:45:33.113Z,97965.11
2019-04-27T11:48:03.189Z,97972.89
2019-04-27T11:50:33.186Z,97964.76
2019-04-27T11:53:03.182Z,97966.37
2019-04-27T11:55:33.260Z,97970.03
2019-04-27T11:58:03.277Z,97965.65
2019-04-27T12:00:33.409Z,97959.31
2019-04-27T12:03:03.438Z,97965.24
2019-04-27T12:05:33.503Z,97955.02
2019-04-27T12:08:03.713Z,97955.38
2019-04-27T12:10:36.175Z,97950.66
2019-04-27T12:13:07.688Z,97955.59
2019-04-27T12:15:37.887Z,97952.72
2019-04-27T12:18:09.173Z,97953.72
2019-04-27T12:20:39.244Z,97944.70
2019-04-27T12:23:09.424Z,97951.44
2019-04-27T12:25:39.333Z,97950.16
2019-04-27T12:28:25.599Z,97958.53
2019-04-27T12:31:02.257Z,97947.62
2019-04-27T12:33:32.391Z,97951.30
2019-04-27T12:36:02.578Z,97948.30
2019-04-27T12:38:32.543Z,97952.21
2019-04-27T12:41:03.152Z,97950.75
2019-04-27T12:43:33.461Z,97946.44
2019-04-27T12:46:03.586Z,97941.41
2019-04-27T12:48:37.067Z,97939.99
2019-04-27T12:51:05.685Z,97934.55
2019-04-27T12:53:50.673Z,97925.80
2019-04-27T12:56:39.891Z,97925.57
2019-04-27T12:59:17.613Z,97923.48
2019-04-27T13:01:47.684Z,97908.80
2019-04-27T13:04:17.651Z,97913.87
2019-04-27T13:06:47.680Z,97911.30
2019-04-27T13:09:17.592Z,97902.21
2019-04-27T13:11:47.811Z,97901.32
2019-04-27T13:14:17.790Z,97892.25
2019-04-27T13:16:47.730Z,97897.09
2019-04-27T13:19:18.072Z,97902.27
2019-04-27T13:21:48.019Z,97889.28
2019-04-27T13:24:18.093Z,97881.05
2019-04-27T13:26:48.094Z,97876.95
2019-04-27T13:29:18.373Z,97871.03
2019-04-27T13:31:48.310Z,97850.44
2019-04-27T13:34:18.248Z,97839.69
2019-04-27T13:36:48.143Z,97843.45
2019-04-27T13:39:18.184Z,97842.55
2019-04-27T13:41:48.169Z,97839.49
2019-04-27T13:44:18.588Z,97843.39
2019-04-27T13:47:13.387Z,97833.68
2019-04-27T13:50:01.021Z,97834.36
2019-04-27T13:52:32.243Z,97832.81
2019-04-27T13:55:02.184Z,97825.77
2019-04-27T13:57:32.274Z,97812.75
2019-04-27T14:00:02.282Z,97809.55
2019-04-27T14:02:33.003Z,97806.42
2019-04-27T14:05:03.953Z,97810.50
2019-04-27T14:07:34.656Z,97806.86
2019-04-27T14:10:05.129Z,97802.98
2019-04-27T14:12:35.174Z,97795.02
2019-04-27T14:15:06.233Z,97789.92
2019-04-27T14:17:36.186Z,97796.88
2019-04-27T14:20:07.997Z,97789.72
2019-04-27T14:22:38.627Z,97800.60
2019-04-27T14:25:08.810Z,97794.76
2019-04-27T14:27:41.459Z,97786.08
2019-04-27T14:30:13.902Z,97800.88
2019-04-27T14:32:43.984Z,97803.20
2019-04-27T14:35:14.405Z,97799.72
2019-04-27T14:37:44.433Z,97804.87
2019-04-27T14:40:14.741Z,97797.84
2019-04-27T14:42:45.131Z,97807.22
2019-04-27T14:45:16.294Z,97809.50
2019-04-27T14:47:48.105Z,97806.25
2019-04-27T14:50:18.780Z,97815.02
2019-04-27T14:52:48.809Z,97811.86
2019-04-27T14:55:18.816Z,97823.28
2019-04-27T14:57:49.584Z,97834.37
2019-04-27T15:00:21.600Z,97861.46
2019-04-27T15:02:51.522Z,97875.13
2019-04-27T15:05:21.635Z,97875.66
2019-04-27T15:07:51.618Z,97876.43
2019-04-27T15:10:21.710Z,97880.83
2019-04-27T15:12:51.621Z,97889.13
2019-04-27T15:15:21.549Z,97895.86
2019-04-27T15:17:51.517Z,97910.08
2019-04-27T15:20:29.101Z,97930.82
2019-04-27T15:23:00.173Z,97941.64
2019-04-27T15:25:35.065Z,97947.47
2019-04-27T15:28:07.367Z,97951.80
2019-04-27T15:30:50.991Z,97941.83
2019-04-27T15:33:46.603Z,97953.45
2019-04-27T15:36:36.838Z,97954.55
2019-04-27T15:39:12.796Z,97969.20
2019-04-27T15:41:48.885Z,97964.66
2019-04-27T15:44:18.944Z,97960.64
2019-04-27T15:46:49.025Z,97955.51
2019-04-27T15:49:19.067Z,97960.83
2019-04-27T15:51:50.716Z,97965.08
2019-04-27T15:54:22.352Z,97967.34
2019-04-27T15:56:52.606Z,97972.69
2019-04-27T15:59:30.977Z,97982.45
2019-04-27T16:02:00.750Z,97984.48
2019-04-27T16:04:30.730Z,97982.40
2019-04-27T16:07:00.658Z,98008.27
2019-04-27T16:09:30.630Z,98002.58
2019-04-27T16:12:09.925Z,98020.52
2019-04-27T16:14:32.193Z,98022.66
2019-04-27T16:17:03.040Z,98011.45
2019-04-27T16:19:33.968Z,98000.66
2019-04-27T16:22:03.978Z,97996.33
2019-04-27T16:24:34.148Z,98007.53
2019-04-27T16:27:04.213Z,98010.39
2019-04-27T16:29:34.141Z,98010.05
2019-04-27T16:32:09.535Z,97998.05
2019-04-27T16:34:39.594Z,97993.16
2019-04-27T16:37:09.754Z,97990.80
2019-04-27T16:39:45.496Z,97986.58
2019-04-27T16:42:14.261Z,97976.26
2019-04-27T16:44:44.359Z,97978.40
2019-04-27T16:47:17.544Z,97971.18
2019-04-27T16:49:48.319Z,97974.68
2019-04-27T16:52:19.268Z,97971.99
2019-04-27T16:54:57.272Z,97977.42
2019-04-27T16:57:23.385Z,97975.05
2019-04-27T16:59:57.615Z,97983.83
2019-04-27T17:02:25.355Z,97983.81
2019-04-27T17:04:55.899Z,97978.59
2019-04-27T17:07:30.247Z,97988.02
2019-04-27T17:09:59.475Z,97999.59
2019-04-27T17:12:34.378Z,98001.67
2019-04-27T17:15:18.972Z,98001.41
2019-04-27T17:17:55.000Z,98001.12
2019-04-27T17:20:25.007Z,98000.34
2019-04-27T17:22:55.049Z,97999.81
2019-04-27T17:25:25.082Z,97997.70
2019-04-27T17:28:03.977Z,98000.73
2019-04-27T17:30:40.475Z,98016.38
2019-04-27T17:33:15.220Z,98024.80
2019-04-27T17:35:42.928Z,98030.19
2019-04-27T17:38:15.688Z,98040.03
2019-04-27T17:40:44.588Z,98055.86
2019-04-27T17:43:14.479Z,98050.81
2019-04-27T17:45:44.490Z,98057.34
2019-04-27T17:48:15.342Z,98051.28
2019-04-27T17:50:45.864Z,98048.09
2019-04-27T17:53:18.648Z,98056.79
2019-04-27T17:55:48.338Z,98052.79
2019-04-27T17:58:20.917Z,98062.33
2019-04-27T18:00:50.059Z,98055.92
2019-04-27T18:03:21.150Z,98054.36
2019-04-27T18:05:52.031Z,98060.88
2019-04-27T18:08:25.165Z,98093.26
2019-04-27T18:11:00.620Z,98120.08
2019-04-27T18:13:26.590Z,98143.90
2019-04-27T18:15:56.554Z,98138.35
2019-04-27T18:18:44.200Z,98146.72
2019-04-27T18:21:15.067Z,98139.45
2019-04-27T18:23:52.310Z,98146.05
2019-04-27T18:26:27.800Z,98137.66
2019-04-27T18:29:01.583Z,98144.98
2019-04-27T18:31:30.596Z,98143.91
2019-04-27T18:34:00.774Z,98149.12
2019-04-27T18:36:30.986Z,98147.22
2019-04-27T18:39:01.125Z,98144.20
2019-04-27T18:41:31.640Z,98150.72
2019-04-27T18:44:01.552Z,98155.82
2019-04-27T18:46:31.557Z,98164.22
2019-04-27T18:49:11.858Z,98157.77
2019-04-27T18:52:04.448Z,98145.75
2019-04-27T18:54:38.309Z,98154.80
2019-04-27T18:57:06.113Z,98153.03
2019-04-27T18:59:37.968Z,98156.20
2019-04-27T19:02:08.592Z,98169.98
2019-04-27T19:04:38.533Z,98169.18
2019-04-27T19:07:08.870Z,98185.95
2019-04-27T19:09:38.836Z,98194.16
2019-04-27T19:12:08.772Z,98210.30
2019-04-27T19:14:38.765Z,98210.44
2019-04-27T19:17:08.705Z,98218.99
2019-04-27T19:19:38.688Z,98223.42
2019-04-27T19:22:09.022Z,98228.97
2019-04-27T19:24:38.984Z,98229.59
2019-04-27T19:27:20.526Z,98230.86
2019-04-27T19:29:54.694Z,98251.09
2019-04-27T19:32:25.483Z,98256.80
2019-04-27T19:34:55.420Z,98253.00
2019-04-27T19:37:25.387Z,98263.13
2019-04-27T19:39:55.574Z,98274.34
2019-04-27T19:42:25.486Z,98296.48
2019-04-27T19:44:55.668Z,98305.16
2019-04-27T19:47:25.610Z,98315.05
2019-04-27T19:49:55.530Z,98327.66
2019-04-27T19:52:25.547Z,98324.79
2019-04-27T19:54:55.731Z,98329.46
2019-04-27T19:57:34.989Z,98303.30
2019-04-27T19:59:59.076Z,98294.64
2019-04-27T20:02:29.567Z,98283.88
2019-04-27T20:05:05.886Z,98273.24
2019-04-27T20:07:37.956Z,98269.32
2019-04-27T20:10:09.225Z,98265.11
2019-04-27T20:12:41.073Z,98258.92
2019-04-27T20:15:11.679Z,98268.95
2019-04-27T20:17:41.590Z,98269.25
2019-04-27T20:20:12.683Z,98279.13
2019-04-27T20:22:42.594Z,98281.30
2019-04-27T20:25:12.843Z,98281.95
2019-04-27T20:27:48.826Z,98289.17
2019-04-27T20:30:15.275Z,98294.58
2019-04-27T20:32:45.592Z,98301.86
2019-04-27T20:35:16.534Z,98296.77
2019-04-27T20:37:46.433Z,98297.95
2019-04-27T20:40:16.747Z,98305.66
2019-04-27T20:42:46.670Z,98305.84
2019-04-27T20:45:17.132Z,98309.73
2019-04-27T20:47:47.036Z,98316.00
2019-04-27T20:50:17.045Z,98324.77
2019-04-27T20:52:54.735Z,98326.63
2019-04-27T20:55:24.938Z,98331.80
2019-04-27T20:58:01.876Z,98340.40
2019-04-27T21:00:27.369Z,98336.74
2019-04-27T21:03:02.103Z,98322.89
2019-04-27T21:05:54.548Z,98319.30
2019-04-27T21:08:24.798Z,98316.59
2019-04-27T21:10:54.750Z,98300.54
2019-04-27T21:13:24.785Z,98301.81
2019-04-27T21:15:55.399Z,98308.66
2019-04-27T21:18:25.286Z,98310.64
2019-04-27T21:20:55.490Z,98322.66
2019-04-27T21:23:25.471Z,98321.48
2019-04-27T21:25:56.089Z,98327.13
2019-04-27T21:28:26.048Z,98334.09
2019-04-27T21:30:56.180Z,98333.20
2019-04-27T21:33:26.144Z,98339.56
2019-04-27T21:35:56.368Z,98340.53
2019-04-27T21:38:26.273Z,98349.08
2019-04-27T21:40:56.286Z,98349.05
2019-04-27T21:43:26.190Z,98357.25
2019-04-27T21:45:56.130Z,98355.16
2019-04-27T21:48:26.547Z,98359.23
2019-04-27T21:50:56.516Z,98360.02
2019-04-27T21:53:53.243Z,98358.88
2019-04-27T21:56:23.614Z,98363.91
2019-04-27T21:58:53.594Z,98367.92
2019-04-27T22:01:33.495Z,98372.76
2019-04-27T22:04:03.750Z,98374.59
2019-04-27T22:06:33.868Z,98376.31
2019-04-27T22:09:06.020Z,98373.78
2019-04-27T22:11:36.039Z,98382.52
2019-04-27T22:14:06.226Z,98381.38
2019-04-27T22:16:36.155Z,98387.20
2019-04-27T22:19:06.951Z,98389.83
2019-04-27T22:21:36.967Z,98393.21
2019-04-27T22:24:42.828Z,98386.01
2019-04-27T22:27:13.032Z,98384.83
2019-04-27T22:29:43.072Z,98381.94
2019-04-27T22:32:13.291Z,98385.53
2019-04-27T22:34:43.689Z,98377.20
2019-04-27T22:37:13.757Z,98376.89
2019-04-27T22:40:03.581Z,98372.31
2019-04-27T22:42:51.597Z,98372.73
2019-04-27T22:45:25.523Z,98366.62
2019-04-27T22:47:55.630Z,98365.31
2019-04-27T22:50:25.819Z,98364.11
2019-04-27T22:52:55.773Z,98371.38
2019-04-27T22:55:25.755Z,98371.66
2019-04-27T22:58:01.654Z,98375.98
2019-04-27T23:00:46.043Z,98376.33
2019-04-27T23:03:21.137Z,98380.94
2019-04-27T23:05:51.320Z,98389.85
2019-04-27T23:08:22.689Z,98392.05
2019-04-27T23:10:52.798Z,98383.73
2019-04-27T23:13:22.727Z,98380.75
2019-04-27T23:15:55.005Z,98380.02
2019-04-27T23:18:25.248Z,98372.80
2019-04-27T23:20:55.410Z,98372.86
2019-04-27T23:23:25.670Z,98366.61
2019-04-27T23:25:55.617Z,98365.43
2019-04-27T23:28:25.900Z,98359.25
2019-04-27T23:31:04.921Z,98359.95
2019-04-27T23:33:35.881Z,98354.25
2019-04-27T23:36:06.341Z,98362.59
2019-04-27T23:38:36.335Z,98357.94
2019-04-27T23:41:06.315Z,98351.55
2019-04-27T23:43:36.257Z,98344.31
2019-04-27T23:46:06.158Z,98351.47
2019-04-27T23:48:36.254Z,98362.12
2019-04-27T23:51:20.960Z,98365.06
2019-04-27T23:53:51.708Z,98363.69
2019-04-27T23:56:22.547Z,98365.24
2019-04-27T23:58:52.727Z,98368.73
